Time;durP1;ratioP1;P1;durP2;ratioP2;P2;SDS_P1;SDS_P2;PMS_P1;PMS_P2;Temp;Humidity;BMP_temperature;BMP_pressure;BME280_temperature;BME280_humidity;BME280_pressure;Samples;Min_cycle;Max_cycle;Signal;HPM_P1;HPM_P2
2023/03/13 00:09:59;;;;;;;14.20;7.40;;;;;;;2.67;67.88;98027.48;435138;1256;99375;-39
2023/03/13 00:20:08;;;;;;;15.10;8.00;;;;;;;2.67;68.14;98011.82;435302;1256;112004;-40
2023/03/13 00:30:14;;;;;;;14.30;9.10;;;;;;;2.67;68.59;97991.98;435241;1256;107482;-39
2023/03/13 00:40:22;;;;;;;14.40;7.00;;;;;;;2.68;68.81;97982.35;434916;1253;99227;-40
2023/03/13 00:50:29;;;;;;;8.50;4.90;;;;;;;2.80;68.94;97965.27;434775;1253;112918;-40
2023/03/13 01:00:36;;;;;;;7.80;5.30;;;;;;;2.98;69.15;97960.10;434972;1253;107320;-41
2023/03/13 01:10:43;;;;;;;11.60;7.10;;;;;;;3.16;69.34;97957.66;434837;1259;98034;-39
2023/03/13 01:20:50;;;;;;;22.30;10.00;;;;;;;3.24;69.42;97950.78;434905;1253;112468;-40
2023/03/13 01:30:59;;;;;;;15.50;7.20;;;;;;;3.29;69.57;97950.47;434879;1253;108357;-40
2023/03/13 01:41:04;;;;;;;14.50;7.80;;;;;;;3.35;69.82;97953.06;435216;1257;98569;-40
2023/03/13 01:51:15;;;;;;;5.90;4.20;;;;;;;3.46;69.97;97951.61;435194;1253;107848;-40
2023/03/13 02:01:23;;;;;;;7.20;4.40;;;;;;;3.66;70.48;97950.52;435233;1256;99116;-41
2023/03/13 02:11:35;;;;;;;11.60;6.10;;;;;;;3.82;71.15;97961.83;435218;1256;110559;-44
2023/03/13 02:21:49;;;;;;;7.50;6.10;;;;;;;3.85;71.58;97974.14;435257;1253;107875;-40
2023/03/13 02:31:56;;;;;;;9.90;6.40;;;;;;;3.86;71.95;97969.02;436025;1256;99298;-41
2023/03/13 02:42:05;;;;;;;6.20;5.60;;;;;;;3.92;72.35;97978.27;435273;1256;111010;-40
2023/03/13 02:52:14;;;;;;;5.30;4.50;;;;;;;4.07;72.73;97986.46;435178;1256;107292;-41
2023/03/13 03:02:21;;;;;;;7.50;5.40;;;;;;;4.20;73.00;97992.59;435047;1256;99266;-40
2023/03/13 03:12:29;;;;;;;10.30;6.00;;;;;;;4.24;73.36;97991.17;435026;1257;108032;-40
2023/03/13 03:22:37;;;;;;;14.00;8.00;;;;;;;4.23;73.67;97997.94;435255;1266;98035;-40
2023/03/13 03:32:44;;;;;;;7.60;5.50;;;;;;;4.30;73.82;98002.36;435084;1257;111297;-40
2023/03/13 03:42:52;;;;;;;7.10;4.80;;;;;;;4.44;74.04;98004.06;434703;1253;520902;-40
2023/03/13 03:52:59;;;;;;;6.20;5.40;;;;;;;4.57;74.29;97998.67;435125;1258;98824;-40
2023/03/13 04:03:06;;;;;;;13.70;8.10;;;;;;;4.60;74.56;97993.14;435208;1257;107652;-41
2023/03/13 04:13:14;;;;;;;12.40;7.60;;;;;;;4.56;74.67;98005.77;435186;1258;99250;-39
2023/03/13 04:23:21;;;;;;;8.40;5.70;;;;;;;4.58;75.09;98012.67;435142;1257;111827;-41
2023/03/13 04:33:29;;;;;;;6.50;5.40;;;;;;;4.64;75.33;97996.46;435045;1253;106921;-40
2023/03/13 04:43:36;;;;;;;6.30;5.20;;;;;;;4.74;75.83;97989.09;435103;1266;99231;-40
2023/03/13 04:53:43;;;;;;;12.50;8.00;;;;;;;4.76;76.23;97984.30;435335;1256;109314;-39
2023/03/13 05:03:50;;;;;;;12.40;7.10;;;;;;;4.70;76.69;97977.86;435148;1258;98935;-40
2023/03/13 05:13:58;;;;;;;8.90;6.40;;;;;;;4.70;76.58;97961.70;435251;1256;111244;-41
2023/03/13 05:24:05;;;;;;;7.60;6.60;;;;;;;4.80;77.17;97954.34;435225;1254;108512;-40
2023/03/13 05:34:12;;;;;;;8.90;6.20;;;;;;;4.91;77.39;97943.43;435277;1257;99273;-40
2023/03/13 05:44:20;;;;;;;8.70;5.70;;;;;;;5.02;77.78;97945.36;435258;1251;108096;-40
2023/03/13 06:04:34;;;;;;;15.20;8.70;;;;;;;5.10;78.28;97943.45;435275;1256;111557;-40
2023/03/13 06:14:41;;;;;;;12.70;7.80;;;;;;;5.20;78.57;97936.30;435284;1251;107714;-40
2023/03/13 06:24:48;;;;;;;12.50;6.50;;;;;;;5.41;78.82;97940.86;435218;1256;98816;-41
2023/03/13 06:34:56;;;;;;;10.90;7.70;;;;;;;5.71;78.85;97936.30;435243;1251;107752;-40
2023/03/13 06:45:03;;;;;;;20.20;11.70;;;;;;;5.98;78.99;97932.08;435373;1251;99220;-40
2023/03/13 06:55:12;;;;;;;13.50;9.40;;;;;;;6.24;78.81;97928.38;435338;1257;112902;-40
2023/03/13 07:05:19;;;;;;;22.00;8.90;;;;;;;6.48;78.56;97927.30;435231;1257;109058;-40
2023/03/13 07:15:26;;;;;;;9.80;6.10;;;;;;;6.59;78.49;97919.73;435190;1257;98022;-40
2023/03/13 07:25:33;;;;;;;16.80;7.60;;;;;;;6.66;78.57;97918.33;435313;1256;109965;-40
2023/03/13 07:35:39;;;;;;;12.40;7.00;;;;;;;6.79;78.36;97901.25;435192;1255;108098;-40
2023/03/13 07:45:57;;;;;;;9.80;6.10;;;;;;;7.30;78.27;97884.19;435298;1257;98098;-40
2023/03/13 07:56:04;;;;;;;11.60;6.00;;;;;;;8.01;77.66;97890.44;435240;1251;107376;-40
2023/03/13 08:06:13;;;;;;;8.90;5.90;;;;;;;8.12;77.32;97880.50;435374;1251;99269;-40
2023/03/13 08:16:20;;;;;;;;;;;;;;;8.96;76.66;97857.03;435510;1256;110725;-42
2023/03/13 08:26:29;;;;;;;13.00;6.20;;;;;;;9.54;75.97;97845.75;435288;1256;107787;-39
2023/03/13 08:36:36;;;;;;;12.40;6.80;;;;;;;10.26;74.97;97830.48;435325;1251;99224;-40
2023/03/13 08:46:44;;;;;;;12.60;5.50;;;;;;;10.65;73.43;97813.65;435314;1257;107046;-40
2023/03/13 08:56:52;;;;;;;12.70;5.30;;;;;;;10.91;72.41;97797.71;435284;1256;98068;-40
2023/03/13 09:06:59;;;;;;;12.90;4.60;;;;;;;11.00;71.78;97795.68;435256;1252;112798;-40
2023/03/13 09:17:05;;;;;;;12.80;4.90;;;;;;;11.15;71.18;97788.45;435201;1256;110713;-40
2023/03/13 09:27:13;;;;;;;8.80;4.40;;;;;;;11.09;70.63;97777.55;435336;1251;99247;-42
2023/03/13 09:37:20;;;;;;;7.80;4.30;;;;;;;11.17;69.78;97775.65;435211;1257;108490;-40
2023/03/13 09:47:36;;;;;;;13.40;5.00;;;;;;;11.41;68.90;97775.23;435339;1251;99265;-41
2023/03/13 09:57:50;;;;;;;14.30;4.10;;;;;;;11.44;68.54;97771.23;435235;1256;111313;-40
2023/03/13 10:07:56;;;;;;;11.40;5.20;;;;;;;11.63;67.56;97755.02;435361;1256;107662;-41
2023/03/13 10:28:08;;;;;;;11.30;4.50;;;;;;;12.55;67.39;97712.11;435381;1251;107462;-41
2023/03/13 10:38:18;;;;;;;16.40;4.20;;;;;;;12.74;66.17;97691.05;435306;1252;98053;-41
2023/03/13 10:48:27;;;;;;;10.90;3.20;;;;;;;12.81;65.03;97673.61;435262;1251;111823;-40
2023/03/13 10:58:37;;;;;;;8.80;3.10;;;;;;;12.68;64.01;97673.45;435269;1255;108586;-42
2023/03/13 11:08:44;;;;;;;10.80;3.60;;;;;;;12.42;64.11;97660.73;435313;1256;98831;-41
2023/03/13 11:18:57;;;;;;;14.30;3.80;;;;;;;12.69;64.02;97628.62;435268;1256;108372;-40
2023/03/13 11:29:03;;;;;;;8.30;2.40;;;;;;;12.72;63.42;97600.49;435352;1251;98830;-40
2023/03/13 11:49:44;;;;;;;13.10;2.70;;;;;;;12.54;62.40;97570.20;435206;1256;107839;-41
2023/03/13 11:59:49;;;;;;;10.30;3.30;;;;;;;12.39;61.97;97578.07;435465;1251;99260;-40
2023/03/13 12:10:00;;;;;;;13.20;3.90;;;;;;;12.18;62.15;97566.63;435354;1256;108749;-41
2023/03/13 12:30:24;;;;;;;10.80;3.70;;;;;;;11.40;64.12;97546.58;435334;1256;112057;-41
2023/03/13 12:40:35;;;;;;;9.10;3.40;;;;;;;10.94;65.51;97541.71;435146;1251;107822;-44
2023/03/13 12:50:43;;;;;;;20.80;4.00;;;;;;;10.64;66.94;97539.88;435386;1256;97992;-40
2023/03/13 13:00:52;;;;;;;12.30;4.40;;;;;;;10.29;67.97;97525.55;435398;1251;107876;-39
2023/03/13 13:11:13;;;;;;;11.50;4.60;;;;;;;10.24;68.59;97507.08;435345;1251;99237;-41
2023/03/13 13:21:28;;;;;;;13.30;4.30;;;;;;;10.41;68.76;97495.94;435291;1251;112814;-41
2023/03/13 13:42:02;;;;;;;11.10;4.70;;;;;;;10.57;67.80;97486.39;435334;1254;98320;-41
2023/03/13 13:52:38;;;;;;;10.50;4.70;;;;;;;10.50;67.41;97491.23;435273;1256;107639;-39
2023/03/13 14:02:46;;;;;;;11.60;4.90;;;;;;;10.37;66.99;97498.61;435266;1256;99323;-41
2023/03/13 14:12:54;;;;;;;10.70;6.00;;;;;;;10.26;66.34;97500.70;435273;1256;112251;-39
2023/03/13 14:23:00;;;;;;;13.10;6.50;;;;;;;10.19;66.28;97498.63;435385;1251;107672;-40
2023/03/13 14:33:08;;;;;;;15.10;5.10;;;;;;;10.14;66.39;97485.11;435159;1251;98811;-41
2023/03/13 14:43:35;;;;;;;5.30;4.30;;;;;;;10.12;66.02;97477.13;435225;1256;108699;-41
2023/03/13 14:53:52;;;;;;;8.20;5.00;;;;;;;10.13;65.69;97478.08;435412;1252;97983;-40
2023/03/13 15:04:00;;;;;;;13.50;6.40;;;;;;;10.13;65.37;97465.34;435378;1251;110964;-40
2023/03/13 15:14:32;;;;;;;29.80;7.90;;;;;;;10.08;65.59;97459.88;435265;1256;108276;-39
2023/03/13 15:24:39;;;;;;;13.20;7.20;;;;;;;10.00;65.25;97453.81;435304;1251;98101;-39
2023/03/13 15:34:47;;;;;;;21.30;9.00;;;;;;;9.94;65.19;97446.27;435286;1255;107150;-40
2023/03/13 15:55:01;;;;;;;14.40;7.90;;;;;;;9.89;65.40;97449.77;435260;1256;111985;-39
2023/03/13 16:05:08;;;;;;;20.40;9.00;;;;;;;9.88;65.68;97441.30;435370;1256;108029;-41
2023/03/13 16:15:16;;;;;;;17.00;7.90;;;;;;;9.82;65.92;97427.29;435195;1256;99365;-40
2023/03/13 16:25:24;;;;;;;13.80;6.80;;;;;;;9.91;66.14;97433.19;435293;1253;108721;-40
2023/03/13 16:35:32;;;;;;;15.70;7.40;;;;;;;9.96;66.36;97448.55;435351;1251;99234;-40
2023/03/13 16:45:40;;;;;;;12.20;5.70;;;;;;;9.90;66.41;97450.50;435245;1256;110369;-40
2023/03/13 16:55:49;;;;;;;13.70;7.20;;;;;;;9.82;66.50;97447.24;435257;1256;108205;-40
2023/03/13 17:05:57;;;;;;;14.10;6.70;;;;;;;9.72;66.62;97433.75;435219;1253;99215;-43
2023/03/13 17:16:09;;;;;;;16.00;6.50;;;;;;;9.65;66.94;97427.79;435154;1256;108680;-42
2023/03/13 17:26:15;;;;;;;12.80;8.00;;;;;;;9.67;67.20;97424.79;435198;1256;98830;-41
2023/03/13 17:36:25;;;;;;;12.40;7.20;;;;;;;9.59;67.29;97415.55;435226;1256;110841;-39
2023/03/13 17:46:38;;;;;;;12.60;6.40;;;;;;;9.46;67.35;97383.27;435240;1254;107840;-40
2023/03/13 17:56:46;;;;;;;16.20;7.50;;;;;;;9.34;67.44;97380.36;435319;1254;99245;-42
2023/03/13 18:06:53;;;;;;;12.10;5.90;;;;;;;9.32;67.54;97374.19;435237;1256;107780;-41
2023/03/13 18:17:00;;;;;;;12.40;7.90;;;;;;;9.29;67.76;97354.75;435134;1256;99253;-41
2023/03/13 18:27:05;;;;;;;13.00;7.50;;;;;;;9.18;67.83;97333.45;435244;1256;111770;-41
2023/03/13 18:37:15;;;;;;;14.80;8.10;;;;;;;9.14;67.90;97324.71;435291;1256;106694;-40
2023/03/13 18:47:26;;;;;;;11.50;7.30;;;;;;;9.14;67.83;97305.41;435294;1256;98014;-41
2023/03/13 18:57:33;;;;;;;17.50;8.70;;;;;;;9.16;68.07;97304.58;435173;1253;108278;-41
2023/03/13 19:07:41;;;;;;;13.10;7.40;;;;;;;9.09;68.19;97319.52;435218;1256;99237;-41
2023/03/13 19:17:48;;;;;;;13.60;7.60;;;;;;;9.03;68.12;97319.52;435263;1256;109974;-44
2023/03/13 19:27:55;;;;;;;19.40;10.10;;;;;;;8.97;68.14;97304.32;435308;1253;107142;-40
2023/03/13 19:38:02;;;;;;;18.00;10.30;;;;;;;8.92;68.21;97300.70;435306;1256;99762;-41
2023/03/13 19:48:10;;;;;;;13.70;7.90;;;;;;;8.91;68.21;97308.55;435164;1256;112878;-41
2023/03/13 19:58:18;;;;;;;15.00;8.30;;;;;;;9.00;68.32;97307.52;435221;1253;109287;-40
2023/03/13 20:08:25;;;;;;;19.80;8.60;;;;;;;9.10;68.36;97305.91;435228;1254;98843;-41
2023/03/13 20:18:31;;;;;;;15.40;9.00;;;;;;;9.09;68.19;97304.27;435196;1255;107268;-41
2023/03/13 20:28:39;;;;;;;18.40;10.10;;;;;;;9.05;68.12;97301.82;435255;1256;99234;-41
2023/03/13 20:38:47;;;;;;;19.10;10.20;;;;;;;8.98;67.93;97298.06;435314;1256;111419;-42
2023/03/13 20:48:54;;;;;;;18.30;10.40;;;;;;;8.88;67.84;97284.12;435317;1256;106662;-41
2023/03/13 20:59:03;;;;;;;17.90;9.70;;;;;;;8.79;67.89;97268.13;435265;1256;98008;-40
2023/03/13 21:09:12;;;;;;;22.20;11.40;;;;;;;8.73;68.06;97271.50;435141;1256;112066;-41
2023/03/13 21:19:20;;;;;;;25.00;12.00;;;;;;;8.57;68.19;97265.55;435255;1254;107551;-40
2023/03/13 21:29:27;;;;;;;23.70;10.70;;;;;;;8.44;68.40;97240.62;435253;1254;98835;-40
2023/03/13 21:39:34;;;;;;;20.30;9.70;;;;;;;8.40;68.35;97233.58;435329;1251;108330;-41
2023/03/13 21:49:42;;;;;;;24.50;11.40;;;;;;;8.42;68.28;97213.58;435258;1251;99231;-41
2023/03/13 21:59:49;;;;;;;19.90;9.30;;;;;;;8.38;68.19;97192.80;435270;1254;111356;-42
2023/03/13 22:09:56;;;;;;;19.80;9.00;;;;;;;8.35;68.19;97194.51;435164;1256;108220;-40
2023/03/13 22:20:05;;;;;;;22.20;11.40;;;;;;;8.34;68.28;97184.80;435239;1261;99243;-41
2023/03/13 22:30:13;;;;;;;23.70;11.80;;;;;;;8.24;68.40;97165.23;435352;1256;108158;-42
2023/03/13 22:40:21;;;;;;;22.60;12.00;;;;;;;8.07;68.32;97169.66;435284;1256;99174;-41
2023/03/13 22:50:27;;;;;;;31.50;14.50;;;;;;;7.91;68.47;97163.99;435254;1251;112066;-41
2023/03/13 23:00:34;;;;;;;27.00;14.40;;;;;;;7.79;68.58;97148.91;435282;1257;106940;-41
2023/03/13 23:10:41;;;;;;;34.10;14.90;;;;;;;7.76;68.61;97132.40;435285;1264;99256;-41
2023/03/13 23:20:49;;;;;;;20.80;10.90;;;;;;;7.75;68.58;97124.81;435293;1256;109842;-42
2023/03/13 23:30:56;;;;;;;23.20;12.80;;;;;;;7.71;68.65;97115.58;435231;1257;106326;-40
2023/03/13 23:41:05;;;;;;;25.00;12.20;;;;;;;7.57;68.52;97106.33;435266;1256;99311;-41
2023/03/13 23:51:12;;;;;;;25.80;12.60;;;;;;;7.43;68.48;97090.04;435326;1256;107374;-41
